Terminal Aerodrome Forecast
Issued by NWS Portland, OR

Home | Current Version | Previous Version | Text Only | Print | Product List | Glossary On
Versions: 1 2 3 4 5 6 7 8 9 10 11 12 13 14 15 16 17 18
000
FTUS46 KPQR 271859 AAA
TAFHIO
TAF AMD
KHIO 271859Z 2719/2818 18005KT P6SM -SHRA OVC012
     FM272000 22008KT P6SM -SHRA OVC015
     FM272200 22008KT P6SM -SHRA OVC019
     FM280000 23008KT P6SM -SHRA OVC019
     FM280600 22006KT P6SM -SHRA OVC015
     FM281200 22006KT P6SM VCSH OVC015=

USA.gov is the U.S. government's official web portal to all federal, state and local government web resources and services.